Jenners, Pennsylvania
Current Conditions -  °F | °C
As of 7:54 PM on Monday 24 Nov 2014 (Local Time) from KJST Reporting Station
Clear Clear  
Wind Chill: 56°   Ceiling: Unl
Heat Index: 56°   Visibility: 10mi
Dew Point: 38°   Wind: 17mph
Humidity: 51%   Direction: 240°WSW
Pressure: 29.67"   Gusts: 25mph
Location:  40.14°N, 79.04°W
Report Text: KJST 250054Z AUTO 24015G22KT 10SM CLR 13/03 A2967 RMK AO2 PK WND 23028/0031 SLP045 T01330033
Loading
Personal Weather Stations






























Interactive Weather Map New forecast layout! Learn more

10-Day Weather Forecast

Advertisements
Track Severe Weather on mobile